sensor_id;sensor_type;location;lat;lon;timestamp;temperature;humidity
11838;DHT22;5978;51.020;6.764;2022-10-17T00:00:30;16.80;99.90
11838;DHT22;5978;51.020;6.764;2022-10-17T00:02:56;16.80;99.90
11838;DHT22;5978;51.020;6.764;2022-10-17T00:05:22;16.70;99.90
11838;DHT22;5978;51.020;6.764;2022-10-17T00:07:49;16.70;99.90
11838;DHT22;5978;51.020;6.764;2022-10-17T00:10:15;16.60;99.90
11838;DHT22;5978;51.020;6.764;2022-10-17T00:12:41;16.60;99.90
11838;DHT22;5978;51.020;6.764;2022-10-17T00:15:07;16.60;99.90
11838;DHT22;5978;51.020;6.764;2022-10-17T00:17:33;16.60;99.90
11838;DHT22;5978;51.020;6.764;2022-10-17T00:20:00;16.60;99.90
11838;DHT22;5978;51.020;6.764;2022-10-17T00:22:27;16.60;99.90
11838;DHT22;5978;51.020;6.764;2022-10-17T00:24:52;16.50;99.90
11838;DHT22;5978;51.020;6.764;2022-10-17T00:27:18;16.50;99.90
11838;DHT22;5978;51.020;6.764;2022-10-17T00:29:48;16.50;99.90
11838;DHT22;5978;51.020;6.764;2022-10-17T00:32:14;16.50;99.90
11838;DHT22;5978;51.020;6.764;2022-10-17T00:34:39;16.50;99.90
11838;DHT22;5978;51.020;6.764;2022-10-17T00:37:05;16.50;99.90
11838;DHT22;5978;51.020;6.764;2022-10-17T00:39:31;16.50;99.90
11838;DHT22;5978;51.020;6.764;2022-10-17T00:41:56;16.40;99.90
11838;DHT22;5978;51.020;6.764;2022-10-17T00:46:54;16.40;99.90
11838;DHT22;5978;51.020;6.764;2022-10-17T00:49:21;16.40;99.90
11838;DHT22;5978;51.020;6.764;2022-10-17T00:51:53;16.40;99.90
11838;DHT22;5978;51.020;6.764;2022-10-17T00:54:34;16.40;99.90
11838;DHT22;5978;51.020;6.764;2022-10-17T00:57:00;16.40;99.90
11838;DHT22;5978;51.020;6.764;2022-10-17T00:59:27;16.40;99.90
11838;DHT22;5978;51.020;6.764;2022-10-17T01:02:04;16.40;99.90
11838;DHT22;5978;51.020;6.764;2022-10-17T01:04:30;16.30;99.90
11838;DHT22;5978;51.020;6.764;2022-10-17T01:06:56;16.30;99.90
11838;DHT22;5978;51.020;6.764;2022-10-17T01:09:23;16.30;99.90
11838;DHT22;5978;51.020;6.764;2022-10-17T01:11:56;16.20;99.90
11838;DHT22;5978;51.020;6.764;2022-10-17T01:14:37;16.20;99.90
11838;DHT22;5978;51.020;6.764;2022-10-17T01:20:08;16.20;99.90
11838;DHT22;5978;51.020;6.764;2022-10-17T01:22:47;16.20;99.90
11838;DHT22;5978;51.020;6.764;2022-10-17T01:31:12;16.20;99.90
11838;DHT22;5978;51.020;6.764;2022-10-17T01:33:45;16.20;99.90
11838;DHT22;5978;51.020;6.764;2022-10-17T01:38:59;16.10;99.90
11838;DHT22;5978;51.020;6.764;2022-10-17T01:41:41;16.10;99.90
11838;DHT22;5978;51.020;6.764;2022-10-17T01:47:06;16.10;99.90
11838;DHT22;5978;51.020;6.764;2022-10-17T01:49:33;16.10;99.90
11838;DHT22;5978;51.020;6.764;2022-10-17T01:52:05;16.10;99.90
11838;DHT22;5978;51.020;6.764;2022-10-17T01:54:41;16.20;99.90
11838;DHT22;5978;51.020;6.764;2022-10-17T01:57:14;16.20;99.90
11838;DHT22;5978;51.020;6.764;2022-10-17T01:59:45;16.20;99.90
11838;DHT22;5978;51.020;6.764;2022-10-17T02:02:14;16.20;99.90
11838;DHT22;5978;51.020;6.764;2022-10-17T02:04:41;16.10;99.90
11838;DHT22;5978;51.020;6.764;2022-10-17T02:07:08;16.20;99.90
11838;DHT22;5978;51.020;6.764;2022-10-17T02:09:34;16.10;99.90
11838;DHT22;5978;51.020;6.764;2022-10-17T02:12:26;16.20;99.90
11838;DHT22;5978;51.020;6.764;2022-10-17T02:20:34;16.10;99.90
11838;DHT22;5978;51.020;6.764;2022-10-17T02:23:02;16.00;99.90
11838;DHT22;5978;51.020;6.764;2022-10-17T02:28:18;16.00;99.90
11838;DHT22;5978;51.020;6.764;2022-10-17T02:31:03;15.90;99.90
11838;DHT22;5978;51.020;6.764;2022-10-17T02:33:36;16.00;99.90
11838;DHT22;5978;51.020;6.764;2022-10-17T02:36:10;15.90;99.90
11838;DHT22;5978;51.020;6.764;2022-10-17T02:38:39;15.90;99.90
11838;DHT22;5978;51.020;6.764;2022-10-17T02:41:07;15.90;99.90
11838;DHT22;5978;51.020;6.764;2022-10-17T02:43:35;15.90;99.90
11838;DHT22;5978;51.020;6.764;2022-10-17T02:46:03;15.90;99.90
11838;DHT22;5978;51.020;6.764;2022-10-17T02:48:44;15.90;99.90
11838;DHT22;5978;51.020;6.764;2022-10-17T02:54:05;15.80;99.90
11838;DHT22;5978;51.020;6.764;2022-10-17T02:56:42;15.80;99.90
11838;DHT22;5978;51.020;6.764;2022-10-17T02:59:11;15.90;99.90
11838;DHT22;5978;51.020;6.764;2022-10-17T03:01:39;15.90;99.90
11838;DHT22;5978;51.020;6.764;2022-10-17T03:04:10;15.90;99.90
11838;DHT22;5978;51.020;6.764;2022-10-17T03:06:36;15.90;99.90
11838;DHT22;5978;51.020;6.764;2022-10-17T03:09:02;15.90;99.90
11838;DHT22;5978;51.020;6.764;2022-10-17T03:11:28;15.90;99.90
11838;DHT22;5978;51.020;6.764;2022-10-17T03:13:54;16.00;99.90
11838;DHT22;5978;51.020;6.764;2022-10-17T03:16:19;16.00;99.90
11838;DHT22;5978;51.020;6.764;2022-10-17T03:18:45;16.00;99.90
11838;DHT22;5978;51.020;6.764;2022-10-17T03:21:11;16.00;99.90
11838;DHT22;5978;51.020;6.764;2022-10-17T03:23:36;16.00;99.90
11838;DHT22;5978;51.020;6.764;2022-10-17T03:26:06;16.10;99.90
11838;DHT22;5978;51.020;6.764;2022-10-17T03:28:32;16.10;99.90
11838;DHT22;5978;51.020;6.764;2022-10-17T03:30:58;16.10;99.90
11838;DHT22;5978;51.020;6.764;2022-10-17T03:33:23;16.10;99.90
11838;DHT22;5978;51.020;6.764;2022-10-17T03:35:49;16.10;99.90
11838;DHT22;5978;51.020;6.764;2022-10-17T03:38:15;16.10;99.90
11838;DHT22;5978;51.020;6.764;2022-10-17T03:40:41;16.10;99.90
11838;DHT22;5978;51.020;6.764;2022-10-17T03:43:06;16.10;99.90
11838;DHT22;5978;51.020;6.764;2022-10-17T03:45:32;16.10;99.90
11838;DHT22;5978;51.020;6.764;2022-10-17T03:47:58;16.20;99.90
11838;DHT22;5978;51.020;6.764;2022-10-17T03:50:24;16.20;99.90
11838;DHT22;5978;51.020;6.764;2022-10-17T03:52:50;16.20;99.90
11838;DHT22;5978;51.020;6.764;2022-10-17T03:55:16;16.20;99.90
11838;DHT22;5978;51.020;6.764;2022-10-17T03:57:41;16.20;99.90
11838;DHT22;5978;51.020;6.764;2022-10-17T04:00:07;16.20;99.90
11838;DHT22;5978;51.020;6.764;2022-10-17T04:02:34;16.20;99.90
11838;DHT22;5978;51.020;6.764;2022-10-17T04:05:00;16.20;99.90
11838;DHT22;5978;51.020;6.764;2022-10-17T04:07:26;16.20;99.90
11838;DHT22;5978;51.020;6.764;2022-10-17T04:09:52;16.20;99.90
11838;DHT22;5978;51.020;6.764;2022-10-17T04:12:17;16.20;99.90
11838;DHT22;5978;51.020;6.764;2022-10-17T04:14:43;16.20;99.90
11838;DHT22;5978;51.020;6.764;2022-10-17T04:17:09;16.20;99.90
11838;DHT22;5978;51.020;6.764;2022-10-17T04:19:35;16.20;99.90
11838;DHT22;5978;51.020;6.764;2022-10-17T04:22:00;16.20;99.90
11838;DHT22;5978;51.020;6.764;2022-10-17T04:24:27;16.20;99.90
11838;DHT22;5978;51.020;6.764;2022-10-17T04:26:53;16.10;99.90
11838;DHT22;5978;51.020;6.764;2022-10-17T04:29:19;16.20;99.90
11838;DHT22;5978;51.020;6.764;2022-10-17T04:31:45;16.10;99.90
11838;DHT22;5978;51.020;6.764;2022-10-17T04:34:11;16.10;99.90
11838;DHT22;5978;51.020;6.764;2022-10-17T04:36:38;16.10;99.90
11838;DHT22;5978;51.020;6.764;2022-10-17T04:39:04;16.20;99.90
11838;DHT22;5978;51.020;6.764;2022-10-17T04:41:30;16.10;99.90
11838;DHT22;5978;51.020;6.764;2022-10-17T04:43:56;16.20;99.90
11838;DHT22;5978;51.020;6.764;2022-10-17T04:46:22;16.10;99.90
11838;DHT22;5978;51.020;6.764;2022-10-17T04:48:47;16.20;99.90
11838;DHT22;5978;51.020;6.764;2022-10-17T04:51:16;16.20;99.90
11838;DHT22;5978;51.020;6.764;2022-10-17T04:53:42;16.10;99.90
11838;DHT22;5978;51.020;6.764;2022-10-17T04:56:20;16.20;99.90
11838;DHT22;5978;51.020;6.764;2022-10-17T04:58:46;16.20;99.90
11838;DHT22;5978;51.020;6.764;2022-10-17T05:01:18;16.20;99.90
11838;DHT22;5978;51.020;6.764;2022-10-17T05:03:45;16.20;99.90
11838;DHT22;5978;51.020;6.764;2022-10-17T05:06:19;16.20;99.90
11838;DHT22;5978;51.020;6.764;2022-10-17T05:08:45;16.30;99.90
11838;DHT22;5978;51.020;6.764;2022-10-17T05:11:20;16.30;99.90
11838;DHT22;5978;51.020;6.764;2022-10-17T05:13:57;16.20;99.90
11838;DHT22;5978;51.020;6.764;2022-10-17T05:16:24;16.30;99.90
11838;DHT22;5978;51.020;6.764;2022-10-17T05:18:51;16.30;99.90
11838;DHT22;5978;51.020;6.764;2022-10-17T05:21:18;16.30;99.90
11838;DHT22;5978;51.020;6.764;2022-10-17T05:23:44;16.40;99.90
11838;DHT22;5978;51.020;6.764;2022-10-17T05:26:10;16.40;99.90
11838;DHT22;5978;51.020;6.764;2022-10-17T05:28:36;16.40;99.90
11838;DHT22;5978;51.020;6.764;2022-10-17T05:31:06;16.40;99.90
11838;DHT22;5978;51.020;6.764;2022-10-17T05:33:32;16.40;99.90
11838;DHT22;5978;51.020;6.764;2022-10-17T05:35:58;16.40;99.90
11838;DHT22;5978;51.020;6.764;2022-10-17T05:38:25;16.50;99.90
11838;DHT22;5978;51.020;6.764;2022-10-17T05:40:50;16.50;99.90
11838;DHT22;5978;51.020;6.764;2022-10-17T05:43:16;16.50;99.90
11838;DHT22;5978;51.020;6.764;2022-10-17T05:45:42;16.50;99.90
11838;DHT22;5978;51.020;6.764;2022-10-17T05:48:07;16.50;99.90
11838;DHT22;5978;51.020;6.764;2022-10-17T05:50:34;16.50;99.90
11838;DHT22;5978;51.020;6.764;2022-10-17T05:53:00;16.60;99.90
11838;DHT22;5978;51.020;6.764;2022-10-17T05:55:26;16.50;99.90
11838;DHT22;5978;51.020;6.764;2022-10-17T05:57:52;16.50;99.90
11838;DHT22;5978;51.020;6.764;2022-10-17T06:00:19;16.50;99.90
11838;DHT22;5978;51.020;6.764;2022-10-17T06:02:45;16.50;99.90
11838;DHT22;5978;51.020;6.764;2022-10-17T06:05:12;16.40;99.90
11838;DHT22;5978;51.020;6.764;2022-10-17T06:07:37;16.40;99.90
11838;DHT22;5978;51.020;6.764;2022-10-17T06:10:04;16.40;99.90
11838;DHT22;5978;51.020;6.764;2022-10-17T06:12:29;16.40;99.90
11838;DHT22;5978;51.020;6.764;2022-10-17T06:14:55;16.40;99.90
11838;DHT22;5978;51.020;6.764;2022-10-17T06:17:21;16.40;99.90
11838;DHT22;5978;51.020;6.764;2022-10-17T06:19:46;16.40;99.90
11838;DHT22;5978;51.020;6.764;2022-10-17T06:22:15;16.40;99.90
11838;DHT22;5978;51.020;6.764;2022-10-17T06:24:50;16.50;99.90
11838;DHT22;5978;51.020;6.764;2022-10-17T06:27:17;16.50;99.90
11838;DHT22;5978;51.020;6.764;2022-10-17T06:29:43;16.50;99.90
11838;DHT22;5978;51.020;6.764;2022-10-17T06:32:08;16.60;99.90
11838;DHT22;5978;51.020;6.764;2022-10-17T06:34:34;16.50;99.90
11838;DHT22;5978;51.020;6.764;2022-10-17T06:36:59;16.60;99.90
11838;DHT22;5978;51.020;6.764;2022-10-17T06:39:25;16.60;99.90
11838;DHT22;5978;51.020;6.764;2022-10-17T06:41:58;16.70;99.90
11838;DHT22;5978;51.020;6.764;2022-10-17T06:44:24;16.70;99.90
11838;DHT22;5978;51.020;6.764;2022-10-17T06:46:52;16.80;99.90
11838;DHT22;5978;51.020;6.764;2022-10-17T06:49:18;16.80;99.90
11838;DHT22;5978;51.020;6.764;2022-10-17T06:51:44;16.90;99.90
11838;DHT22;5978;51.020;6.764;2022-10-17T06:54:09;17.00;99.90
11838;DHT22;5978;51.020;6.764;2022-10-17T06:56:35;17.00;99.90
11838;DHT22;5978;51.020;6.764;2022-10-17T06:59:00;17.10;99.90
11838;DHT22;5978;51.020;6.764;2022-10-17T07:01:26;17.10;99.90
11838;DHT22;5978;51.020;6.764;2022-10-17T07:03:53;17.20;99.90
11838;DHT22;5978;51.020;6.764;2022-10-17T07:06:18;17.30;99.90
11838;DHT22;5978;51.020;6.764;2022-10-17T07:08:44;17.30;99.90
11838;DHT22;5978;51.020;6.764;2022-10-17T07:11:16;17.40;99.90
11838;DHT22;5978;51.020;6.764;2022-10-17T07:13:42;17.40;99.90
11838;DHT22;5978;51.020;6.764;2022-10-17T07:16:08;17.50;99.90
11838;DHT22;5978;51.020;6.764;2022-10-17T07:18:34;17.60;99.90
11838;DHT22;5978;51.020;6.764;2022-10-17T07:21:00;17.70;99.90
11838;DHT22;5978;51.020;6.764;2022-10-17T07:23:26;17.70;99.90
11838;DHT22;5978;51.020;6.764;2022-10-17T07:25:52;17.70;99.90
11838;DHT22;5978;51.020;6.764;2022-10-17T07:28:18;17.80;99.90
11838;DHT22;5978;51.020;6.764;2022-10-17T07:30:44;17.70;99.90
11838;DHT22;5978;51.020;6.764;2022-10-17T07:33:10;17.80;99.90
11838;DHT22;5978;51.020;6.764;2022-10-17T07:35:37;17.90;99.90
11838;DHT22;5978;51.020;6.764;2022-10-17T07:38:05;18.00;99.90
11838;DHT22;5978;51.020;6.764;2022-10-17T07:40:31;18.10;99.90
11838;DHT22;5978;51.020;6.764;2022-10-17T07:42:57;18.20;99.90
11838;DHT22;5978;51.020;6.764;2022-10-17T07:45:22;18.40;99.90
11838;DHT22;5978;51.020;6.764;2022-10-17T07:47:48;18.50;99.90
11838;DHT22;5978;51.020;6.764;2022-10-17T07:50:14;18.70;99.90
11838;DHT22;5978;51.020;6.764;2022-10-17T07:52:39;18.90;99.90
11838;DHT22;5978;51.020;6.764;2022-10-17T07:55:08;19.00;99.90
11838;DHT22;5978;51.020;6.764;2022-10-17T07:57:34;19.10;99.90
11838;DHT22;5978;51.020;6.764;2022-10-17T07:59:59;19.20;99.90
11838;DHT22;5978;51.020;6.764;2022-10-17T08:02:26;19.30;99.90
11838;DHT22;5978;51.020;6.764;2022-10-17T08:04:58;19.30;99.90
11838;DHT22;5978;51.020;6.764;2022-10-17T08:07:30;19.40;99.90
11838;DHT22;5978;51.020;6.764;2022-10-17T08:09:55;19.50;99.90
11838;DHT22;5978;51.020;6.764;2022-10-17T08:12:21;19.60;99.90
11838;DHT22;5978;51.020;6.764;2022-10-17T08:14:47;19.80;99.90
11838;DHT22;5978;51.020;6.764;2022-10-17T08:17:12;19.80;99.90
11838;DHT22;5978;51.020;6.764;2022-10-17T08:19:38;20.00;99.90
11838;DHT22;5978;51.020;6.764;2022-10-17T08:22:05;20.10;99.90
11838;DHT22;5978;51.020;6.764;2022-10-17T08:24:31;20.10;99.90
11838;DHT22;5978;51.020;6.764;2022-10-17T08:26:57;20.10;99.90
11838;DHT22;5978;51.020;6.764;2022-10-17T08:29:23;20.10;99.90
11838;DHT22;5978;51.020;6.764;2022-10-17T08:31:48;20.20;99.90
11838;DHT22;5978;51.020;6.764;2022-10-17T08:34:14;20.20;99.90
11838;DHT22;5978;51.020;6.764;2022-10-17T08:36:40;20.20;99.90
11838;DHT22;5978;51.020;6.764;2022-10-17T08:39:06;20.20;99.90
11838;DHT22;5978;51.020;6.764;2022-10-17T08:41:59;20.10;99.90
11838;DHT22;5978;51.020;6.764;2022-10-17T08:45:15;20.10;99.90
11838;DHT22;5978;51.020;6.764;2022-10-17T08:47:48;20.30;99.90
11838;DHT22;5978;51.020;6.764;2022-10-17T08:53:23;20.20;99.90
11838;DHT22;5978;51.020;6.764;2022-10-17T08:55:51;20.20;99.90
11838;DHT22;5978;51.020;6.764;2022-10-17T08:58:23;20.30;99.90
11838;DHT22;5978;51.020;6.764;2022-10-17T09:01:01;20.30;99.90
11838;DHT22;5978;51.020;6.764;2022-10-17T09:06:21;20.30;99.90
11838;DHT22;5978;51.020;6.764;2022-10-17T09:12:19;20.40;99.90
11838;DHT22;5978;51.020;6.764;2022-10-17T09:17:42;20.40;99.90
11838;DHT22;5978;51.020;6.764;2022-10-17T09:20:20;20.50;99.90
11838;DHT22;5978;51.020;6.764;2022-10-17T09:25:41;20.70;99.90
11838;DHT22;5978;51.020;6.764;2022-10-17T09:28:33;20.70;99.90
11838;DHT22;5978;51.020;6.764;2022-10-17T09:33:38;20.80;99.90
11838;DHT22;5978;51.020;6.764;2022-10-17T09:36:25;20.80;99.90
11838;DHT22;5978;51.020;6.764;2022-10-17T09:39:17;20.90;99.90
11838;DHT22;5978;51.020;6.764;2022-10-17T09:41:51;20.70;99.90
11838;DHT22;5978;51.020;6.764;2022-10-17T09:44:30;20.60;99.90
11838;DHT22;5978;51.020;6.764;2022-10-17T09:49:30;20.40;99.90
11838;DHT22;5978;51.020;6.764;2022-10-17T09:51:57;20.50;99.90
11838;DHT22;5978;51.020;6.764;2022-10-17T09:54:25;20.70;99.90
11838;DHT22;5978;51.020;6.764;2022-10-17T09:59:31;20.70;99.90
11838;DHT22;5978;51.020;6.764;2022-10-17T10:02:28;20.70;99.90
11838;DHT22;5978;51.020;6.764;2022-10-17T10:05:05;20.70;99.90
11838;DHT22;5978;51.020;6.764;2022-10-17T10:07:38;20.80;99.90
11838;DHT22;5978;51.020;6.764;2022-10-17T10:10:23;20.80;99.90
11838;DHT22;5978;51.020;6.764;2022-10-17T10:13:09;20.90;99.90
11838;DHT22;5978;51.020;6.764;2022-10-17T10:15:41;21.00;99.90
11838;DHT22;5978;51.020;6.764;2022-10-17T10:18:34;21.20;99.90
11838;DHT22;5978;51.020;6.764;2022-10-17T10:21:19;21.20;99.90
11838;DHT22;5978;51.020;6.764;2022-10-17T10:24:05;21.10;99.90
11838;DHT22;5978;51.020;6.764;2022-10-17T10:26:32;21.00;99.90
11838;DHT22;5978;51.020;6.764;2022-10-17T10:29:05;21.10;99.90
11838;DHT22;5978;51.020;6.764;2022-10-17T10:31:37;20.90;99.90
11838;DHT22;5978;51.020;6.764;2022-10-17T10:34:26;20.80;99.90
11838;DHT22;5978;51.020;6.764;2022-10-17T10:36:57;20.80;99.90
11838;DHT22;5978;51.020;6.764;2022-10-17T10:39:31;20.80;99.90
11838;DHT22;5978;51.020;6.764;2022-10-17T10:41:59;20.90;99.90
11838;DHT22;5978;51.020;6.764;2022-10-17T10:44:28;20.90;99.90
11838;DHT22;5978;51.020;6.764;2022-10-17T10:47:14;21.00;99.90
11838;DHT22;5978;51.020;6.764;2022-10-17T10:49:41;21.10;99.90
11838;DHT22;5978;51.020;6.764;2022-10-17T10:55:18;21.20;99.90
11838;DHT22;5978;51.020;6.764;2022-10-17T10:57:46;21.20;99.90
11838;DHT22;5978;51.020;6.764;2022-10-17T11:00:20;21.20;99.90
11838;DHT22;5978;51.020;6.764;2022-10-17T11:03:09;21.20;99.90
11838;DHT22;5978;51.020;6.764;2022-10-17T11:08:49;21.20;99.90
11838;DHT22;5978;51.020;6.764;2022-10-17T11:21:46;21.40;99.90
11838;DHT22;5978;51.020;6.764;2022-10-17T11:24:31;21.40;99.90
11838;DHT22;5978;51.020;6.764;2022-10-17T11:27:03;21.40;99.90
11838;DHT22;5978;51.020;6.764;2022-10-17T11:29:34;21.50;99.90
11838;DHT22;5978;51.020;6.764;2022-10-17T11:32:12;21.50;99.90
11838;DHT22;5978;51.020;6.764;2022-10-17T11:35:00;21.60;99.90
11838;DHT22;5978;51.020;6.764;2022-10-17T11:37:59;21.60;99.90
11838;DHT22;5978;51.020;6.764;2022-10-17T11:40:31;21.70;99.90
11838;DHT22;5978;51.020;6.764;2022-10-17T11:43:14;21.60;99.90
11838;DHT22;5978;51.020;6.764;2022-10-17T11:45:50;21.70;99.90
11838;DHT22;5978;51.020;6.764;2022-10-17T11:48:38;21.70;99.90
11838;DHT22;5978;51.020;6.764;2022-10-17T11:51:10;21.70;99.90
11838;DHT22;5978;51.020;6.764;2022-10-17T11:53:56;21.70;99.90
11838;DHT22;5978;51.020;6.764;2022-10-17T11:56:38;21.70;99.90
11838;DHT22;5978;51.020;6.764;2022-10-17T11:59:13;21.80;99.90
11838;DHT22;5978;51.020;6.764;2022-10-17T12:01:52;21.90;99.90
11838;DHT22;5978;51.020;6.764;2022-10-17T12:05:00;21.80;99.90
11838;DHT22;5978;51.020;6.764;2022-10-17T12:07:54;21.80;99.90
11838;DHT22;5978;51.020;6.764;2022-10-17T12:10:46;21.80;99.90
11838;DHT22;5978;51.020;6.764;2022-10-17T12:15:57;21.70;99.90
11838;DHT22;5978;51.020;6.764;2022-10-17T12:18:24;21.70;99.90
11838;DHT22;5978;51.020;6.764;2022-10-17T12:20:56;21.70;99.90
11838;DHT22;5978;51.020;6.764;2022-10-17T12:23:30;21.70;99.90
11838;DHT22;5978;51.020;6.764;2022-10-17T12:26:04;21.80;99.90
11838;DHT22;5978;51.020;6.764;2022-10-17T12:31:09;21.50;99.90
11838;DHT22;5978;51.020;6.764;2022-10-17T12:33:54;21.50;99.90
11838;DHT22;5978;51.020;6.764;2022-10-17T12:46:56;21.40;99.90
11838;DHT22;5978;51.020;6.764;2022-10-17T12:52:24;21.20;99.90
11838;DHT22;5978;51.020;6.764;2022-10-17T12:57:26;21.10;99.90
11838;DHT22;5978;51.020;6.764;2022-10-17T12:59:54;21.10;99.90
11838;DHT22;5978;51.020;6.764;2022-10-17T13:02:24;21.10;99.90
11838;DHT22;5978;51.020;6.764;2022-10-17T13:05:04;21.20;99.90
11838;DHT22;5978;51.020;6.764;2022-10-17T13:07:33;21.20;99.90
11838;DHT22;5978;51.020;6.764;2022-10-17T13:09:59;21.20;99.90
11838;DHT22;5978;51.020;6.764;2022-10-17T13:12:31;21.30;99.90
11838;DHT22;5978;51.020;6.764;2022-10-17T13:14:58;21.30;99.90
11838;DHT22;5978;51.020;6.764;2022-10-17T13:17:29;21.40;99.90
11838;DHT22;5978;51.020;6.764;2022-10-17T13:19:56;21.50;99.90
11838;DHT22;5978;51.020;6.764;2022-10-17T13:22:23;21.50;99.90
11838;DHT22;5978;51.020;6.764;2022-10-17T13:24:51;21.50;99.90
11838;DHT22;5978;51.020;6.764;2022-10-17T13:29:48;21.60;99.90
11838;DHT22;5978;51.020;6.764;2022-10-17T13:32:13;21.70;99.90
11838;DHT22;5978;51.020;6.764;2022-10-17T13:34:39;21.60;99.90
11838;DHT22;5978;51.020;6.764;2022-10-17T13:37:06;21.60;99.90
11838;DHT22;5978;51.020;6.764;2022-10-17T13:39:38;21.70;99.90
11838;DHT22;5978;51.020;6.764;2022-10-17T13:42:05;21.60;99.90
11838;DHT22;5978;51.020;6.764;2022-10-17T13:44:33;21.60;99.90
11838;DHT22;5978;51.020;6.764;2022-10-17T13:46:59;21.60;99.90
11838;DHT22;5978;51.020;6.764;2022-10-17T13:49:33;21.70;99.90
11838;DHT22;5978;51.020;6.764;2022-10-17T13:52:01;21.80;99.90
11838;DHT22;5978;51.020;6.764;2022-10-17T13:54:33;21.90;99.90
11838;DHT22;5978;51.020;6.764;2022-10-17T13:57:00;21.90;99.90
11838;DHT22;5978;51.020;6.764;2022-10-17T13:59:36;21.90;99.90
11838;DHT22;5978;51.020;6.764;2022-10-17T14:02:03;22.00;99.90
11838;DHT22;5978;51.020;6.764;2022-10-17T14:04:30;22.00;99.90
11838;DHT22;5978;51.020;6.764;2022-10-17T14:06:55;22.10;99.90
11838;DHT22;5978;51.020;6.764;2022-10-17T14:09:24;22.20;99.90
11838;DHT22;5978;51.020;6.764;2022-10-17T14:12:10;22.20;99.90
11838;DHT22;5978;51.020;6.764;2022-10-17T14:14:38;22.20;99.90
11838;DHT22;5978;51.020;6.764;2022-10-17T14:17:25;22.40;99.90
11838;DHT22;5978;51.020;6.764;2022-10-17T14:19:53;22.40;99.90
11838;DHT22;5978;51.020;6.764;2022-10-17T14:24:47;22.20;99.90
11838;DHT22;5978;51.020;6.764;2022-10-17T14:27:26;22.20;99.90
11838;DHT22;5978;51.020;6.764;2022-10-17T14:29:54;22.20;99.90
11838;DHT22;5978;51.020;6.764;2022-10-17T14:32:21;22.20;99.90
11838;DHT22;5978;51.020;6.764;2022-10-17T14:34:51;22.20;99.90
11838;DHT22;5978;51.020;6.764;2022-10-17T14:37:42;22.00;99.90
11838;DHT22;5978;51.020;6.764;2022-10-17T14:40:22;22.00;99.90
11838;DHT22;5978;51.020;6.764;2022-10-17T14:42:49;21.90;99.90
11838;DHT22;5978;51.020;6.764;2022-10-17T14:47:55;21.90;99.90
11838;DHT22;5978;51.020;6.764;2022-10-17T14:50:24;21.90;99.90
11838;DHT22;5978;51.020;6.764;2022-10-17T14:55:38;21.80;99.90
11838;DHT22;5978;51.020;6.764;2022-10-17T14:58:23;21.90;99.90
11838;DHT22;5978;51.020;6.764;2022-10-17T15:00:49;21.90;99.90
11838;DHT22;5978;51.020;6.764;2022-10-17T15:03:15;21.90;99.90
11838;DHT22;5978;51.020;6.764;2022-10-17T15:06:14;21.80;99.90
11838;DHT22;5978;51.020;6.764;2022-10-17T15:08:41;21.80;99.90
11838;DHT22;5978;51.020;6.764;2022-10-17T15:11:22;21.80;99.90
11838;DHT22;5978;51.020;6.764;2022-10-17T15:13:49;21.70;99.90
11838;DHT22;5978;51.020;6.764;2022-10-17T15:16:18;21.60;99.90
11838;DHT22;5978;51.020;6.764;2022-10-17T15:18:44;21.60;99.90
11838;DHT22;5978;51.020;6.764;2022-10-17T15:21:14;21.50;99.90
11838;DHT22;5978;51.020;6.764;2022-10-17T15:23:40;21.40;99.90
11838;DHT22;5978;51.020;6.764;2022-10-17T15:26:21;21.30;99.90
11838;DHT22;5978;51.020;6.764;2022-10-17T15:28:47;21.30;99.90
11838;DHT22;5978;51.020;6.764;2022-10-17T15:31:18;21.30;99.90
11838;DHT22;5978;51.020;6.764;2022-10-17T15:33:45;21.20;99.90
11838;DHT22;5978;51.020;6.764;2022-10-17T15:36:28;21.10;99.90
11838;DHT22;5978;51.020;6.764;2022-10-17T15:38:59;21.00;99.90
11838;DHT22;5978;51.020;6.764;2022-10-17T15:41:28;20.90;99.90
11838;DHT22;5978;51.020;6.764;2022-10-17T15:44:24;20.80;99.90
11838;DHT22;5978;51.020;6.764;2022-10-17T15:46:50;20.70;99.90
11838;DHT22;5978;51.020;6.764;2022-10-17T15:49:17;20.60;99.90
11838;DHT22;5978;51.020;6.764;2022-10-17T15:51:44;20.50;99.90
11838;DHT22;5978;51.020;6.764;2022-10-17T15:54:10;20.50;99.90
11838;DHT22;5978;51.020;6.764;2022-10-17T15:56:38;20.50;99.90
11838;DHT22;5978;51.020;6.764;2022-10-17T15:59:16;20.50;99.90
11838;DHT22;5978;51.020;6.764;2022-10-17T16:01:43;20.40;99.90
11838;DHT22;5978;51.020;6.764;2022-10-17T16:04:10;20.30;99.90
11838;DHT22;5978;51.020;6.764;2022-10-17T16:06:38;20.10;99.90
11838;DHT22;5978;51.020;6.764;2022-10-17T16:09:03;20.00;99.90
11838;DHT22;5978;51.020;6.764;2022-10-17T16:14:03;19.70;99.90
11838;DHT22;5978;51.020;6.764;2022-10-17T16:16:29;19.50;99.90
11838;DHT22;5978;51.020;6.764;2022-10-17T16:18:55;19.40;99.90
11838;DHT22;5978;51.020;6.764;2022-10-17T16:21:24;19.20;99.90
11838;DHT22;5978;51.020;6.764;2022-10-17T16:23:50;19.20;99.90
11838;DHT22;5978;51.020;6.764;2022-10-17T16:26:16;19.10;99.90
11838;DHT22;5978;51.020;6.764;2022-10-17T16:28:42;19.10;99.90
11838;DHT22;5978;51.020;6.764;2022-10-17T16:33:42;18.90;99.90
11838;DHT22;5978;51.020;6.764;2022-10-17T16:36:08;18.80;99.90
11838;DHT22;5978;51.020;6.764;2022-10-17T16:38:34;18.80;99.90
11838;DHT22;5978;51.020;6.764;2022-10-17T16:41:00;18.70;99.90
11838;DHT22;5978;51.020;6.764;2022-10-17T16:43:26;18.60;99.90
11838;DHT22;5978;51.020;6.764;2022-10-17T16:45:51;18.60;99.90
11838;DHT22;5978;51.020;6.764;2022-10-17T16:48:17;18.50;99.90
11838;DHT22;5978;51.020;6.764;2022-10-17T16:50:42;18.50;99.90
11838;DHT22;5978;51.020;6.764;2022-10-17T16:53:08;18.40;99.90
11838;DHT22;5978;51.020;6.764;2022-10-17T16:55:34;18.40;99.90
11838;DHT22;5978;51.020;6.764;2022-10-17T16:57:59;18.30;99.90
11838;DHT22;5978;51.020;6.764;2022-10-17T17:00:25;18.30;99.90
11838;DHT22;5978;51.020;6.764;2022-10-17T17:02:51;18.40;99.90
11838;DHT22;5978;51.020;6.764;2022-10-17T17:05:17;18.40;99.90
11838;DHT22;5978;51.020;6.764;2022-10-17T17:07:43;18.30;99.90
11838;DHT22;5978;51.020;6.764;2022-10-17T17:10:09;18.30;99.90
11838;DHT22;5978;51.020;6.764;2022-10-17T17:12:35;18.30;99.90
11838;DHT22;5978;51.020;6.764;2022-10-17T17:15:01;18.20;99.90
11838;DHT22;5978;51.020;6.764;2022-10-17T17:17:27;18.20;99.90
11838;DHT22;5978;51.020;6.764;2022-10-17T17:19:53;18.20;99.90
11838;DHT22;5978;51.020;6.764;2022-10-17T17:22:20;18.20;99.90
11838;DHT22;5978;51.020;6.764;2022-10-17T17:24:45;18.20;99.90
11838;DHT22;5978;51.020;6.764;2022-10-17T17:27:11;18.20;99.90
11838;DHT22;5978;51.020;6.764;2022-10-17T17:30:08;18.20;99.90
11838;DHT22;5978;51.020;6.764;2022-10-17T17:32:34;18.20;99.90
11838;DHT22;5978;51.020;6.764;2022-10-17T17:34:59;18.20;99.90
11838;DHT22;5978;51.020;6.764;2022-10-17T17:37:25;18.20;99.90
11838;DHT22;5978;51.020;6.764;2022-10-17T17:39:51;18.20;99.90
11838;DHT22;5978;51.020;6.764;2022-10-17T17:42:17;18.20;99.90
11838;DHT22;5978;51.020;6.764;2022-10-17T17:44:43;18.20;99.90
11838;DHT22;5978;51.020;6.764;2022-10-17T17:47:09;18.20;99.90